createdAt,value
2023-04-14T00:00:02.306Z,77.66113281
2023-04-14T00:01:02.690Z,77.76489258
2023-04-14T00:02:04.008Z,77.76489258
2023-04-14T00:03:05.213Z,77.66113281
2023-04-14T00:04:06.146Z,77.55737305
2023-04-14T00:05:06.512Z,77.45361328
2023-04-14T00:06:06.961Z,77.45361328
2023-04-14T00:07:08.002Z,77.55737305
2023-04-14T00:08:08.436Z,77.55737305
2023-04-14T09:31:52.161Z,61.12670898
2023-04-14T09:32:53.848Z,59.48486328
2023-04-14T09:33:55.200Z,59.38110352
2023-04-14T09:34:57.875Z,59.79614258
2023-04-14T09:35:57.085Z,59.89379883
2023-04-14T09:36:59.253Z,59.35668945
2023-04-14T09:38:00.805Z,59.25292969
2023-04-14T09:39:01.695Z,58.33129883
2023-04-14T09:40:03.533Z,58.02612305
2023-04-14T09:41:07.097Z,58.43505859
2023-04-14T09:42:09.112Z,58.22753906
2023-04-14T09:43:10.292Z,58.22753906
2023-04-14T09:44:11.018Z,58.43505859
2023-04-14T09:45:12.840Z,58.33129883
2023-04-14T09:46:13.870Z,58.33129883
2023-04-14T09:47:14.683Z,58.22753906
2023-04-14T09:48:15.316Z,58.33129883
2023-04-14T09:49:17.168Z,58.43505859
2023-04-14T09:50:18.050Z,58.53881836
2023-04-14T09:51:19.717Z,58.63647461
2023-04-14T09:52:21.317Z,58.02612305
2023-04-14T09:53:53.547Z,57.79418945
2023-04-14T09:54:54.048Z,57.8918457
2023-04-14T09:55:54.763Z,58.09936523
2023-04-14T09:56:55.467Z,57.99560547
2023-04-14T09:57:56.255Z,57.17773438
2023-04-14T09:58:57.605Z,56.5612793
2023-04-14T09:59:59.172Z,56.3293457
2023-04-14T10:00:59.940Z,58.06884766
2023-04-14T10:02:00.703Z,58.27636719
2023-04-14T10:03:01.865Z,56.22558594
2023-04-14T10:04:02.844Z,55.92041016
2023-04-14T10:05:03.523Z,56.3293457
2023-04-14T10:06:04.364Z,56.94580078
2023-04-14T10:07:06.361Z,56.71386719
2023-04-14T10:08:07.271Z,55.38330078
2023-04-14T10:09:08.904Z,55.5847168
2023-04-14T10:10:10.360Z,57.12280273
2023-04-14T10:11:12.176Z,56.30493164
2023-04-14T10:12:39.303Z,55.27954102
2023-04-14T10:14:11.174Z,55.56030273
2023-04-14T10:15:13.151Z,55.35888672
2023-04-14T10:16:15.027Z,54.13208008
2023-04-14T10:17:16.370Z,53.515625
2023-04-14T10:18:17.146Z,53.30810547
2023-04-14T10:19:17.921Z,53.515625
2023-04-14T10:20:19.183Z,54.43725586
2023-04-14T10:21:20.862Z,55.23071289
2023-04-14T10:22:21.577Z,54.4128418
2023-04-14T10:23:22.217Z,53.38745117
2023-04-14T10:24:38.672Z,52.2644043
2023-04-14T10:25:24.333Z,52.46582031
2023-04-14T10:26:25.146Z,53.49121094
2023-04-14T10:27:25.962Z,54.00390625
2023-04-14T10:28:27.300Z,53.28369141
2023-04-14T10:29:27.942Z,53.28369141
2023-04-14T10:30:29.759Z,53.18603516
2023-04-14T10:31:31.626Z,52.77709961
2023-04-14T10:32:32.545Z,50.93383789
2023-04-14T10:33:34.319Z,50.52490234
2023-04-14T10:34:34.923Z,50.09155273
2023-04-14T10:35:36.356Z,49.70703125
2023-04-14T10:36:37.800Z,49.70703125
2023-04-14T10:37:38.989Z,50.01220703
2023-04-14T10:39:10.903Z,50.52490234
2023-04-14T10:40:11.915Z,51.13525391
2023-04-14T10:41:13.619Z,51.23901367
2023-04-14T10:42:14.616Z,51.4465332
2023-04-14T10:43:15.337Z,51.54418945
2023-04-14T10:44:16.886Z,52.23999023
2023-04-14T10:45:18.349Z,50.80566406
2023-04-14T10:46:19.050Z,51.31835938
2023-04-14T10:47:19.860Z,51.52587891
2023-04-14T10:48:20.449Z,50.50048828
2023-04-14T10:49:21.613Z,50.60424805
2023-04-14T10:50:23.343Z,50.09155273
2023-04-14T10:51:24.841Z,48.35205078
2023-04-14T10:52:25.573Z,47.82104492
2023-04-14T10:53:26.797Z,48.02246094
2023-04-14T10:54:27.511Z,47.71728516
2023-04-14T10:55:28.360Z,48.43139648
2023-04-14T10:56:29.139Z,49.45678711
2023-04-14T10:57:30.015Z,47.38769531
2023-04-14T10:58:31.327Z,46.77734375
2023-04-14T10:59:32.779Z,48.00415039
2023-04-14T11:00:33.565Z,47.49145508
2023-04-14T11:01:35.120Z,45.77636719
2023-04-14T11:02:36.045Z,45.77636719
2023-04-14T11:03:37.401Z,46.69799805
2023-04-14T11:05:09.280Z,47.20458984
2023-04-14T11:06:10.696Z,46.16088867
2023-04-14T11:07:11.462Z,46.16088867
2023-04-14T11:08:12.147Z,46.88110352
2023-04-14T11:09:13.710Z,46.97875977
2023-04-14T11:10:15.207Z,47.69287109
2023-04-14T11:11:16.986Z,48.30932617
2023-04-14T11:12:18.478Z,48.10180664
2023-04-14T11:13:19.068Z,50.04272461
2023-04-14T11:14:20.689Z,48.30932617
2023-04-14T11:15:21.526Z,48.82202148
2023-04-14T11:16:22.281Z,47.16186523
2023-04-14T11:17:23.297Z,45.32470703
2023-04-14T11:18:23.688Z,45.22094727
2023-04-14T11:19:25.122Z,45.93505859
2023-04-14T11:20:25.870Z,47.16186523
2023-04-14T11:21:27.427Z,46.96044922
2023-04-14T11:22:28.467Z,45.83740234
2023-04-14T11:23:29.804Z,45.4284668
2023-04-14T11:24:30.404Z,46.85668945
2023-04-14T11:25:31.153Z,47.46704102
2023-04-14T11:26:32.791Z,47.77832031
2023-04-14T11:27:34.348Z,48.41308594
2023-04-14T11:28:35.020Z,48.30932617
2023-04-14T11:29:36.644Z,49.12719727
2023-04-14T11:30:37.433Z,48.51074219
2023-04-14T11:32:09.690Z,48.91967773
2023-04-14T11:33:10.401Z,49.43237305
2023-04-14T11:34:11.698Z,49.94506836
2023-04-14T11:35:12.564Z,50.55541992
2023-04-14T11:36:14.206Z,50.22583008
2023-04-14T11:37:15.925Z,49.40795898
2023-04-14T11:38:17.488Z,49.40795898
2023-04-14T11:39:18.853Z,47.97973633
2023-04-14T11:40:19.622Z,48.08349609
2023-04-14T11:41:21.606Z,48.38867188
2023-04-14T11:42:22.513Z,48.28491211
2023-04-14T11:43:24.138Z,48.28491211
2023-04-14T11:44:25.617Z,48.18115234
2023-04-14T11:45:27.331Z,48.08349609
2023-04-14T11:46:28.882Z,48.28491211
2023-04-14T11:47:30.369Z,48.69384766
2023-04-14T11:48:31.186Z,49.71313477
2023-04-14T11:49:31.692Z,48.08349609
2023-04-14T11:50:32.323Z,47.67456055
2023-04-14T11:51:33.007Z,47.46704102
2023-04-14T11:52:34.598Z,47.87597656
2023-04-14T11:53:35.816Z,47.36938477
2023-04-14T11:54:36.543Z,48.79760742
2023-04-14T11:55:38.066Z,47.57080078
2023-04-14T11:57:09.016Z,47.265625
2023-04-14T11:58:10.593Z,48.90136719
2023-04-14T11:59:11.182Z,47.05810547
2023-04-14T12:00:12.648Z,47.97973633
2023-04-14T12:01:13.660Z,48.08349609
2023-04-14T12:02:15.309Z,50.09765625
2023-04-14T12:03:16.560Z,48.98071289
2023-04-14T12:04:17.147Z,47.95532227
2023-04-14T12:05:18.389Z,46.02050781
2023-04-14T12:06:19.004Z,46.52709961
2023-04-14T12:07:19.756Z,46.73461914
2023-04-14T12:08:20.338Z,46.91772461
2023-04-14T12:09:22.359Z,45.38574219
2023-04-14T12:10:23.024Z,47.22290039
2023-04-14T12:11:24.618Z,46.69189453
2023-04-14T12:12:28.601Z,47.50366211
2023-04-14T12:13:27.326Z,46.17919922
2023-04-14T12:14:27.976Z,44.44580078
2023-04-14T12:15:28.702Z,45.56884766
2023-04-14T12:16:29.490Z,45.0378418
2023-04-14T12:17:30.131Z,45.0378418
2023-04-14T12:18:30.660Z,44.73266602
2023-04-14T12:19:31.360Z,43.48754883
2023-04-14T12:20:32.020Z,41.55273438
2023-04-14T12:21:32.734Z,41.14379883
2023-04-14T12:22:34.117Z,42.05932617
2023-04-14T12:23:35.282Z,42.7734375
2023-04-14T12:24:36.003Z,42.87719727
2023-04-14T12:25:36.686Z,42.65136719
2023-04-14T12:26:37.778Z,43.06030273
2023-04-14T12:28:08.724Z,43.06030273
2023-04-14T12:29:10.152Z,42.34619141
2023-04-14T12:30:10.969Z,42.04101563
2023-04-14T12:31:11.666Z,40.90576172
2023-04-14T12:32:12.844Z,40.39306641
2023-04-14T12:33:13.756Z,39.49584961
2023-04-14T12:34:15.342Z,39.70336914
2023-04-14T12:35:16.072Z,39.39819336
2023-04-14T12:36:16.716Z,39.39819336
2023-04-14T12:37:17.366Z,39.78271484
2023-04-14T12:38:18.058Z,41.10717773
2023-04-14T12:39:20.297Z,41.10717773
2023-04-14T12:40:21.020Z,42.22412109
2023-04-14T12:41:21.623Z,41.51611328
2023-04-14T12:42:23.158Z,40.08789063
2023-04-14T12:43:24.375Z,41.39404297
2023-04-14T12:44:25.820Z,39.66064453
2023-04-14T12:45:28.041Z,40.47851563
2023-04-14T12:46:27.228Z,40.76538086
2023-04-14T12:47:28.630Z,39.44091797
2023-04-14T12:48:29.283Z,39.64233398
2023-04-14T12:49:30.719Z,39.42260742
2023-04-14T12:50:31.389Z,39.7277832
2023-04-14T12:51:32.136Z,38.40942383
2023-04-14T12:52:33.758Z,38.39111328
2023-04-14T12:53:34.476Z,39.91088867
2023-04-14T12:54:35.142Z,38.5925293
2023-04-14T12:55:36.691Z,37.15209961
2023-04-14T12:57:08.188Z,37.45727539
2023-04-14T12:58:09.146Z,38.37280273
2023-04-14T12:59:10.927Z,38.75732422
2023-04-14T13:00:11.860Z,37.03613281
2023-04-14T13:01:12.642Z,37.13378906
2023-04-14T13:02:13.905Z,37.34130859
2023-04-14T13:03:14.882Z,38.23242188
2023-04-14T13:04:16.163Z,38.03100586
2023-04-14T13:05:16.674Z,37.4206543
2023-04-14T13:06:18.233Z,37.62207031
2023-04-14T13:07:19.655Z,37.92724609
2023-04-14T13:08:20.298Z,37.32299805
2023-04-14T13:09:22.306Z,36.82861328
2023-04-14T13:10:22.962Z,36.93237305
2023-04-14T13:11:24.431Z,35.91918945
2023-04-14T13:12:26.054Z,35.59570313
2023-04-14T13:13:27.009Z,36.73095703
2023-04-14T13:14:28.924Z,37.54272461
2023-04-14T13:16:11.903Z,37.64038086
2023-04-14T13:16:31.354Z,37.43896484
2023-04-14T13:17:32.141Z,37.74414063
2023-04-14T13:18:32.656Z,37.13378906
2023-04-14T13:19:34.219Z,36.73095703
2023-04-14T13:20:34.873Z,35.59570313
2023-04-14T13:21:35.636Z,35.68115234
2023-04-14T13:22:36.832Z,35.96801758
2023-04-14T13:24:07.700Z,36.86523438
2023-04-14T13:25:08.493Z,34.92431641
2023-04-14T13:26:09.137Z,34.61914063
2023-04-14T13:27:10.632Z,34.90600586
2023-04-14T13:28:12.079Z,35.37597656
2023-04-14T13:29:12.634Z,33.94775391
2023-04-14T13:30:14.481Z,33.35571289
2023-04-14T13:31:15.304Z,33.54492188
2023-04-14T13:32:16.051Z,33.50830078
2023-04-14T13:33:17.064Z,32.57446289
2023-04-14T13:34:18.311Z,32.02514648
2023-04-14T13:35:18.851Z,30.26733398
2023-04-14T13:36:19.533Z,30.42602539
2023-04-14T13:37:20.190Z,29.07714844
2023-04-14T13:38:20.718Z,28.23486328
2023-04-14T13:39:22.813Z,27.69775391
2023-04-14T13:40:23.534Z,26.97143555
2023-04-14T13:41:25.085Z,25.93383789
2023-04-14T13:42:26.708Z,25.10986328
2023-04-14T13:43:27.348Z,25.68359375
2023-04-14T13:44:28.822Z,24.18212891
2023-04-14T13:45:29.384Z,23.46191406
2023-04-14T13:46:34.393Z,22.45483398
2023-04-14T13:47:32.308Z,22.44262695
2023-04-14T13:48:33.616Z,22.61962891
2023-04-14T13:49:34.784Z,22.42431641
2023-04-14T13:50:35.420Z,22.39990234
2023-04-14T13:52:07.152Z,22.3449707
2023-04-14T13:53:07.729Z,21.05102539
2023-04-14T13:54:09.247Z,20.66650391
2023-04-14T13:55:10.849Z,21.06323242
2023-04-14T13:56:11.367Z,20.87402344
2023-04-14T13:57:11.949Z,21.37451172
2023-04-14T13:58:13.607Z,21.26464844
2023-04-14T13:59:14.869Z,21.05102539
2023-04-14T14:00:15.590Z,21.05102539
2023-04-14T14:01:16.199Z,20.74584961
2023-04-14T14:02:16.888Z,20.44067383
2023-04-14T14:03:18.412Z,20.52612305
2023-04-14T14:04:19.924Z,19.73266602
2023-04-14T14:05:20.411Z,20.25146484
2023-04-14T14:06:21.005Z,20.85571289
2023-04-14T14:07:21.623Z,20.44677734
2023-04-14T14:08:23.127Z,19.8425293
2023-04-14T14:09:24.324Z,19.53735352
2023-04-14T14:10:25.870Z,19.04296875
2023-04-14T14:11:26.477Z,18.93920898
2023-04-14T14:12:27.187Z,19.7265625
2023-04-14T14:13:27.906Z,19.25048828
2023-04-14T14:14:29.118Z,19.56176758
2023-04-14T14:15:30.859Z,19.14672852
2023-04-14T14:17:32.898Z,19.3359375
2023-04-14T14:18:34.208Z,20.12939453
2023-04-14T14:19:35.959Z,20.84350586
2023-04-14T14:21:06.872Z,20.4284668
2023-04-14T14:22:08.292Z,20.80688477
2023-04-14T14:23:08.927Z,20.92285156
2023-04-14T14:24:10.416Z,20.71533203
2023-04-14T14:25:20.244Z,20.72753906
2023-04-14T14:26:12.401Z,20.01953125
2023-04-14T14:27:12.989Z,19.6472168
2023-04-14T14:28:14.912Z,20.4284668
2023-04-14T14:29:15.556Z,20.52001953
2023-04-14T14:30:17.065Z,19.93408203
2023-04-14T14:31:18.330Z,20.52612305
2023-04-14T14:32:18.999Z,20.703125
2023-04-14T14:33:19.497Z,20.41625977
2023-04-14T14:34:20.633Z,21.04492188
2023-04-14T14:35:21.794Z,21.34399414
2023-04-14T14:36:22.408Z,20.92285156
2023-04-14T14:37:22.965Z,20.31860352
2023-04-14T14:38:24.314Z,21.11206055
2023-04-14T14:39:25.782Z,21.83837891
2023-04-14T14:40:27.131Z,22.02758789
2023-04-14T14:41:27.718Z,20.31860352
2023-04-14T14:42:29.557Z,20.01953125
2023-04-14T14:43:31.068Z,21.14257813
2023-04-14T14:44:31.806Z,21.82617188
2023-04-14T14:45:33.728Z,20.61767578
2023-04-14T14:46:33.976Z,19.61669922
2023-04-14T14:47:34.659Z,20.73364258
2023-04-14T14:49:06.471Z,20.41625977
2023-04-14T14:50:08.762Z,20.41625977
2023-04-14T14:51:08.506Z,20.33081055
2023-04-14T14:52:09.178Z,19.81201172
2023-04-14T14:53:09.723Z,19.60449219
2023-04-14T14:54:11.074Z,19.8059082
2023-04-14T14:55:11.802Z,19.79370117
2023-04-14T14:56:13.634Z,19.99511719
2023-04-14T14:57:14.309Z,19.10400391
2023-04-14T14:58:15.765Z,19.29931641
2023-04-14T14:59:16.452Z,19.01245117
2023-04-14T15:00:17.160Z,19.61669922
2023-04-14T15:01:17.734Z,19.62280273
2023-04-14T15:02:18.600Z,19.63500977
2023-04-14T15:03:19.148Z,19.95239258
2023-04-14T15:04:20.680Z,20.25146484
2023-04-14T15:05:21.886Z,20.04394531
2023-04-14T15:06:22.504Z,19.94018555
2023-04-14T15:07:24.048Z,20.62988281
2023-04-14T15:08:25.288Z,19.73266602
2023-04-14T15:09:26.758Z,19.62280273
2023-04-14T15:10:28.350Z,19.42749023
2023-04-14T15:11:28.878Z,19.32983398
2023-04-14T15:12:30.120Z,19.81201172
2023-04-14T15:13:31.628Z,19.51904297
2023-04-14T15:14:32.212Z,19.50683594
2023-04-14T15:15:32.856Z,19.79370117
2023-04-14T15:16:33.477Z,20.08056641
2023-04-14T15:17:34.057Z,19.77539063
2023-04-14T15:18:35.385Z,19.16503906
2023-04-14T15:20:07.458Z,18.8659668
2023-04-14T15:21:08.099Z,18.17626953
2023-04-14T15:22:08.713Z,18.6706543
2023-04-14T15:23:09.374Z,18.6706543
2023-04-14T15:24:10.831Z,18.10302734
2023-04-14T15:25:11.716Z,19.62280273
2023-04-14T15:26:13.473Z,19.4152832
2023-04-14T15:27:14.132Z,19.01245117
2023-04-14T15:28:15.844Z,18.91479492
2023-04-14T15:29:17.341Z,18.80493164
2023-04-14T15:30:17.981Z,18.80493164
2023-04-14T15:31:19.446Z,18.49975586
2023-04-14T15:32:19.983Z,19.2199707
2023-04-14T15:33:20.669Z,19.31762695
2023-04-14T15:34:22.171Z,19.40917969
2023-04-14T15:35:23.341Z,19.69604492
2023-04-14T15:36:24.123Z,19.10400391
2023-04-14T15:37:24.731Z,18.69506836
2023-04-14T15:38:26.146Z,18.99414063
2023-04-14T15:39:28.351Z,19.18945313
2023-04-14T15:40:29.853Z,19.18945313
2023-04-14T15:41:30.572Z,18.78662109
2023-04-14T15:42:31.101Z,18.97583008
2023-04-14T15:43:31.846Z,18.78662109
2023-04-14T15:44:33.174Z,19.07348633
2023-04-14T15:45:33.788Z,18.97583008
2023-04-14T15:47:05.860Z,18.57910156
2023-04-14T15:48:07.362Z,18.40209961
2023-04-14T15:49:08.824Z,19.0246582
2023-04-14T15:50:10.551Z,19.52514648
2023-04-14T15:51:10.156Z,19.8425293
2023-04-14T15:52:11.688Z,20.04394531
2023-04-14T15:53:12.302Z,19.85473633
2023-04-14T15:54:13.658Z,20.66650391
2023-04-14T15:55:14.294Z,20.47729492
2023-04-14T15:56:15.848Z,21.08154297
2023-04-14T15:57:16.412Z,20.91674805
2023-04-14T15:58:17.026Z,21.22192383
2023-04-14T15:59:18.132Z,21.94213867
2023-04-14T16:00:19.337Z,22.57080078
2023-04-14T16:01:20.198Z,23.17504883
2023-04-14T16:02:20.905Z,22.57080078
2023-04-14T16:03:22.031Z,22.87597656
2023-04-14T16:04:23.514Z,23.1628418
2023-04-14T16:05:24.011Z,24.27368164
2023-04-14T16:06:24.549Z,25.4699707
2023-04-14T16:07:25.345Z,25.56152344
2023-04-14T16:08:26.240Z,25.57373047
2023-04-14T16:09:27.687Z,25.49438477
2023-04-14T16:10:29.187Z,26.29394531
2023-04-14T16:11:30.347Z,24.90844727
2023-04-14T16:12:31.941Z,24.31640625
2023-04-14T16:13:32.772Z,25.00610352
2023-04-14T16:14:34.168Z,24.39575195
2023-04-14T16:16:05.526Z,24.50561523
2023-04-14T16:17:06.173Z,24.10888672
2023-04-14T16:18:06.922Z,24.20654297
2023-04-14T16:19:08.280Z,24.4934082
2023-04-14T16:20:09.635Z,24.48120117
2023-04-14T16:21:10.194Z,24.68261719
2023-04-14T16:22:10.846Z,24.87182617
2023-04-14T16:23:11.583Z,23.87084961
2023-04-14T16:24:12.857Z,24.65820313
2023-04-14T16:25:13.612Z,24.94506836
2023-04-14T16:26:14.147Z,24.45068359
2023-04-14T16:27:14.953Z,24.24926758
2023-04-14T16:28:16.323Z,23.54736328
2023-04-14T16:29:17.737Z,23.54736328
2023-04-14T16:30:19.145Z,23.54736328
2023-04-14T16:31:19.761Z,23.85864258
2023-04-14T16:32:20.372Z,24.27368164
2023-04-14T16:33:21.082Z,24.78637695
2023-04-14T16:34:22.627Z,25.61035156
2023-04-14T16:35:23.207Z,26.22070313
2023-04-14T16:36:23.807Z,26.51977539
2023-04-14T16:37:24.470Z,26.73339844
2023-04-14T16:38:25.308Z,27.36206055
2023-04-14T16:39:26.781Z,27.4597168
2023-04-14T16:40:28.453Z,28.07617188
2023-04-14T16:41:28.945Z,28.49121094
2023-04-14T16:42:30.376Z,28.60107422
2023-04-14T16:43:30.972Z,29.23583984
2023-04-14T16:44:32.193Z,29.96826172
2023-04-14T16:45:32.932Z,29.98046875
2023-04-14T16:46:34.477Z,30.91430664
2023-04-14T16:48:05.784Z,31.24389648
2023-04-14T16:49:06.821Z,31.66503906
2023-04-14T16:50:08.182Z,32.57446289
2023-04-14T16:51:08.844Z,32.8918457
2023-04-14T16:52:10.510Z,32.80639648
2023-04-14T16:53:11.931Z,32.70263672
2023-04-14T16:54:12.640Z,33.1237793
2023-04-14T16:55:13.581Z,33.34350586
2023-04-14T16:56:14.990Z,33.86230469
2023-04-14T16:57:15.755Z,34.48486328
2023-04-14T16:58:16.584Z,35.19287109
2023-04-14T16:59:18.245Z,35.61401367
2023-04-14T17:00:19.630Z,35.91918945
2023-04-14T17:01:20.404Z,36.43798828
2023-04-14T17:02:22.265Z,36.74316406
2023-04-14T17:03:24.047Z,36.86523438
2023-04-14T17:04:25.507Z,37.26806641
2023-04-14T17:05:25.935Z,37.67089844
2023-04-14T17:06:26.592Z,37.99438477
2023-04-14T17:07:28.291Z,38.19580078
2023-04-14T17:08:29.836Z,38.29956055
2023-04-14T17:09:31.351Z,38.51928711
2023-04-14T17:10:32.816Z,38.82446289
2023-04-14T17:11:33.475Z,39.14794922
2023-04-14T17:13:05.272Z,39.24560547
2023-04-14T17:14:06.830Z,39.65454102
2023-04-14T17:15:07.453Z,39.77661133
2023-04-14T17:16:09.553Z,40.17944336
2023-04-14T17:17:09.571Z,40.07568359
2023-04-14T17:18:10.898Z,40.19775391
2023-04-14T17:19:12.377Z,40.7043457
2023-04-14T17:20:13.017Z,40.60668945
2023-04-14T17:21:13.682Z,40.39916992
2023-04-14T17:22:15.455Z,40.93017578
2023-04-14T17:23:17.570Z,41.74194336
2023-04-14T17:24:20.023Z,42.24853516
2023-04-14T17:25:20.605Z,41.63818359
2023-04-14T17:26:21.953Z,42.35229492
2023-04-14T17:27:23.491Z,42.16918945
2023-04-14T17:28:24.141Z,42.06542969
2023-04-14T17:29:25.824Z,42.57202148
2023-04-14T17:30:26.423Z,42.7734375
2023-04-14T17:31:27.226Z,42.98095703
2023-04-14T17:32:28.107Z,42.98095703
2023-04-14T17:33:28.755Z,42.7734375
2023-04-14T17:34:30.182Z,42.67578125
2023-04-14T17:35:30.882Z,42.6940918
2023-04-14T17:36:31.584Z,42.38891602
2023-04-14T17:37:32.321Z,42.38891602
2023-04-14T17:38:32.994Z,42.1875
2023-04-14T17:40:05.410Z,42.49267578
2023-04-14T17:41:05.992Z,42.71240234
2023-04-14T17:42:06.924Z,42.71240234
2023-04-14T17:43:07.662Z,43.12133789
2023-04-14T17:44:08.843Z,42.91992188
2023-04-14T17:45:09.523Z,43.22509766
2023-04-14T17:46:10.221Z,43.54858398
2023-04-14T17:47:10.935Z,43.65234375
2023-04-14T17:48:11.832Z,44.26269531
2023-04-14T17:49:13.620Z,43.95751953
2023-04-14T17:50:14.901Z,44.07958984
2023-04-14T17:51:15.495Z,44.28100586
2023-04-14T17:52:16.397Z,44.28100586
2023-04-14T17:53:17.176Z,44.28100586
2023-04-14T17:54:18.339Z,44.38476563
2023-04-14T17:55:19.051Z,44.48852539
2023-04-14T17:56:20.272Z,44.58618164
2023-04-14T17:57:21.962Z,44.48852539
2023-04-14T17:58:22.892Z,44.58618164
2023-04-14T17:59:24.147Z,44.89135742
2023-04-14T18:00:25.591Z,44.68994141
2023-04-14T18:01:26.438Z,44.89135742
2023-04-14T18:02:27.953Z,45.1171875
2023-04-14T18:03:28.881Z,45.31860352
2023-04-14T18:04:30.212Z,45.31860352
2023-04-14T18:05:30.791Z,45.52612305
2023-04-14T18:06:31.540Z,45.52612305
2023-04-14T18:07:32.305Z,45.62988281
2023-04-14T18:08:34.400Z,45.52612305
2023-04-14T18:10:06.840Z,45.52612305
2023-04-14T18:11:07.642Z,45.72753906
2023-04-14T18:12:08.344Z,45.52612305
2023-04-14T18:13:09.101Z,45.72753906
2023-04-14T18:14:10.445Z,45.72753906
2023-04-14T18:15:10.929Z,45.72753906
2023-04-14T18:16:12.243Z,45.93505859
2023-04-14T18:17:13.886Z,45.72753906
2023-04-14T18:18:15.353Z,45.72753906
2023-04-14T18:19:16.087Z,45.72753906
2023-04-14T18:20:17.644Z,45.72753906
2023-04-14T18:21:19.332Z,45.72753906
2023-04-14T18:22:20.034Z,45.72753906
2023-04-14T18:23:22.324Z,45.83129883
2023-04-14T18:25:24.382Z,45.83129883
2023-04-14T18:26:26.674Z,46.13647461
2023-04-14T18:28:27.263Z,46.33789063
2023-04-14T18:29:28.918Z,46.24023438
2023-04-14T18:30:30.379Z,46.33789063
2023-04-14T18:31:31.417Z,46.13647461
2023-04-14T18:32:32.027Z,46.24023438
2023-04-14T18:34:04.361Z,46.33789063
2023-04-14T18:35:04.997Z,46.44165039
2023-04-14T18:36:05.629Z,46.77124023
2023-04-14T18:37:06.344Z,46.46606445
2023-04-14T18:38:07.899Z,46.36230469
2023-04-14T18:39:09.318Z,45.54443359
2023-04-14T18:40:10.927Z,46.05712891
2023-04-14T18:41:11.631Z,46.46606445
2023-04-14T18:42:13.542Z,46.77124023
2023-04-14T18:43:14.841Z,48.01635742
2023-04-14T18:44:15.428Z,47.60742188
2023-04-14T18:45:16.189Z,47.09472656
2023-04-14T18:46:17.305Z,46.99707031
2023-04-14T18:47:18.025Z,45.87402344
2023-04-14T18:48:19.110Z,46.38061523
2023-04-14T18:49:21.336Z,46.89331055
2023-04-14T18:50:22.965Z,46.38061523
2023-04-14T18:51:23.635Z,46.78955078
2023-04-14T18:52:24.257Z,47.30224609
2023-04-14T18:53:25.708Z,46.89331055
2023-04-14T18:54:26.901Z,46.58813477
2023-04-14T18:55:28.478Z,46.99707031
2023-04-14T18:56:29.283Z,46.69189453
2023-04-14T18:57:30.791Z,46.99707031
2023-04-14T18:58:32.379Z,46.89331055
2023-04-14T19:00:04.172Z,46.58813477
2023-04-14T19:01:05.733Z,46.36230469
2023-04-14T19:02:06.567Z,45.87402344
2023-04-14T19:03:07.231Z,46.28295898
2023-04-14T19:04:08.386Z,46.484375
2023-04-14T19:05:09.051Z,45.26367188
2023-04-14T19:06:09.820Z,44.54956055
2023-04-14T19:07:10.575Z,44.54956055
2023-04-14T19:08:11.667Z,44.24438477
2023-04-14T19:09:12.832Z,44.34204102
2023-04-14T19:10:14.506Z,44.95849609
2023-04-14T19:11:15.326Z,45.15991211
2023-04-14T19:12:27.672Z,45.77026367
2023-04-14T19:13:16.460Z,45.87402344
2023-04-14T19:14:17.056Z,46.484375
2023-04-14T19:15:18.397Z,46.89331055
2023-04-14T19:16:19.141Z,47.09472656
2023-04-14T19:17:19.617Z,47.22290039
2023-04-14T19:18:20.220Z,47.42431641
2023-04-14T19:19:21.895Z,47.52807617
2023-04-14T19:20:23.416Z,47.63183594
2023-04-14T19:21:24.209Z,47.72949219
2023-04-14T19:22:24.755Z,47.63183594
2023-04-14T19:23:25.289Z,47.83325195
2023-04-14T19:24:26.849Z,47.83325195
2023-04-14T19:25:28.297Z,47.72949219
2023-04-14T19:26:29.793Z,47.72949219
2023-04-14T19:27:30.421Z,47.72949219
2023-04-14T19:28:30.983Z,47.72949219
2023-04-14T19:29:32.616Z,47.60742188
2023-04-14T19:31:04.252Z,47.39990234
2023-04-14T19:32:05.016Z,47.39990234
2023-04-14T19:33:06.365Z,47.39990234
2023-04-14T19:34:07.910Z,47.30224609
2023-04-14T19:35:09.390Z,47.39990234
2023-04-14T19:36:09.944Z,47.42431641
2023-04-14T19:37:11.375Z,47.52807617
2023-04-14T19:38:12.228Z,47.52807617
2023-04-14T19:39:13.964Z,47.63183594
2023-04-14T19:40:15.857Z,47.63183594
2023-04-14T19:41:16.610Z,47.63183594
2023-04-14T19:42:18.119Z,47.63183594
2023-04-14T19:43:18.689Z,47.83325195
2023-04-14T19:44:20.504Z,48.03466797
2023-04-14T19:45:21.146Z,48.7487793
2023-04-14T19:46:21.898Z,49.97558594
2023-04-14T19:47:22.596Z,50.0793457
2023-04-14T19:48:24.510Z,51.01928711
2023-04-14T19:49:25.853Z,51.73339844
2023-04-14T19:50:27.356Z,52.03857422
2023-04-14T19:51:27.954Z,52.34375
2023-04-14T19:52:29.377Z,52.64892578
2023-04-14T19:53:29.947Z,53.16162109
2023-04-14T19:54:31.354Z,53.49121094
2023-04-14T19:55:32.398Z,53.67431641
2023-04-14T19:57:03.399Z,53.87573242
2023-04-14T19:58:03.982Z,53.87573242
2023-04-14T19:59:05.415Z,54.10766602
2023-04-14T20:00:08.401Z,54.4128418
2023-04-14T20:01:10.925Z,54.51049805
2023-04-14T20:02:11.550Z,54.63867188
2023-04-14T20:03:12.344Z,55.04760742
2023-04-14T20:04:14.060Z,55.04760742
2023-04-14T20:05:44.635Z,55.04760742
2023-04-14T20:07:15.547Z,55.04760742
2023-04-14T20:08:16.282Z,55.25512695
2023-04-14T20:09:18.016Z,55.35888672
2023-04-14T20:10:19.406Z,55.45654297
2023-04-14T20:11:20.249Z,55.25512695
2023-04-14T20:12:21.853Z,55.56030273
2023-04-14T20:13:22.637Z,55.45654297
2023-04-14T20:14:23.933Z,55.68847656
2023-04-14T20:15:25.372Z,55.48706055
2023-04-14T20:16:26.197Z,55.48706055
2023-04-14T20:17:26.824Z,55.48706055
2023-04-14T20:18:27.566Z,55.56030273
2023-04-14T20:19:29.236Z,55.25512695
2023-04-14T20:20:30.922Z,55.15136719
2023-04-14T20:21:31.510Z,55.25512695
2023-04-14T20:23:03.059Z,55.25512695
2023-04-14T20:24:04.423Z,55.56030273
2023-04-14T20:25:05.057Z,55.45654297
2023-04-14T20:26:05.853Z,55.45654297
2023-04-14T20:27:07.424Z,55.15136719
2023-04-14T20:28:09.881Z,55.35888672
2023-04-14T20:29:12.750Z,55.25512695
2023-04-14T20:30:15.890Z,55.15136719
2023-04-14T20:31:19.583Z,55.15136719
2023-04-14T20:32:21.096Z,54.94995117
2023-04-14T20:33:26.117Z,54.84619141
2023-04-14T20:34:27.570Z,54.84619141
2023-04-14T20:35:28.989Z,54.61425781
2023-04-14T20:36:32.328Z,54.54101563
2023-04-14T20:38:05.654Z,54.43725586
2023-04-14T20:39:10.918Z,54.54101563
2023-04-14T20:40:14.947Z,54.54101563